Schneifelwetter: Wetterstation Hallschlag, 537 m . NN
Wetterdaten: Montag, 01.03.2010
Datum Zeit Temp. A. Feuchte A. Luftdruck Regen Wind Richtung Richtung Sonnenschein Helligkeit T Regen Taupunkt Windchill
01.03.2010 00:00 0,8 C 97 % 998 hPa 0,3 l/m 32,5 km/h (5 Bft) W45 265 0 min 0 lux 15,00 min 0,4 C -13,0 C
01.03.2010 00:15 0,6 C 97 % 998 hPa 0,0 l/m 34,3 km/h (5 Bft) W45 265 0 min 0 lux 0,00 min 0,2 C -13,7 C
01.03.2010 00:30 0,5 C 97 % 999 hPa 0,0 l/m 37,9 km/h (5 Bft) W22.5 260 0 min 0 lux 0,00 min 0,1 C -14,7 C
01.03.2010 00:45 0,5 C 97 % 999 hPa 0,0 l/m 33,6 km/h (5 Bft) W-SW22.5 255 0 min 0 lux 0,00 min 0,1 C -13,7 C
01.03.2010 01:00 0,5 C 97 % 999 hPa 0,0 l/m 31,4 km/h (5 Bft) W22.5 270 0 min 0 lux 0,00 min 0,1 C -13,1 C
01.03.2010 01:15 0,6 C 97 % 999 hPa 0,0 l/m 40,0 km/h (6 Bft) W-SW22.5 255 0 min 0 lux 0,00 min 0,2 C -15,0 C
01.03.2010 01:30 0,7 C 97 % 1000 hPa 0,0 l/m 38,4 km/h (5 Bft) W-SW22.5 255 0 min 0 lux 0,00 min 0,3 C -14,6 C
01.03.2010 01:45 0,7 C 97 % 1000 hPa 0,0 l/m 41,9 km/h (6 Bft) W45 260 0 min 0 lux 0,00 min 0,3 C -15,3 C
01.03.2010 02:00 0,7 C 97 % 1000 hPa 0,0 l/m 37,3 km/h (5 Bft) W-SW45 250 0 min 0 lux 0,00 min 0,3 C -14,3 C
01.03.2010 02:15 0,7 C 97 % 1000 hPa 0,0 l/m 40,7 km/h (6 Bft) W-SW45 255 0 min 0 lux 0,00 min 0,3 C -15,0 C
01.03.2010 02:31 0,7 C 97 % 1000 hPa 0,0 l/m 43,3 km/h (6 Bft) W-SW22.5 255 0 min 0 lux 0,00 min 0,3 C -15,5 C
01.03.2010 02:46 0,7 C 97 % 1000 hPa 0,0 l/m 29,6 km/h (5 Bft) W45 260 0 min 0 lux 0,00 min 0,3 C -12,3 C
01.03.2010 03:01 0,7 C 97 % 1001 hPa 0,0 l/m 36,6 km/h (5 Bft) W-SW22.5 250 0 min 0 lux 0,00 min 0,3 C -14,2 C
01.03.2010 03:16 0,7 C 97 % 1000 hPa 0,0 l/m 34,6 km/h (5 Bft) W-SW22.5 250 0 min 0 lux 0,00 min 0,3 C -13,7 C
01.03.2010 03:31 0,7 C 97 % 1000 hPa 0,0 l/m 30,1 km/h (5 Bft) W-SW45 250 0 min 0 lux 0,00 min 0,3 C -12,5 C
01.03.2010 03:46 0,7 C 97 % 1001 hPa 0,0 l/m 32,6 km/h (5 Bft) W-SW45 250 0 min 0 lux 0,00 min 0,3 C -13,2 C
01.03.2010 04:01 0,5 C 97 % 1001 hPa 0,3 l/m 32,1 km/h (5 Bft) W-SW45 255 0 min 0 lux 15,00 min 0,1 C -13,3 C
01.03.2010 04:16 0,3 C 98 % 1001 hPa 0,0 l/m 40,6 km/h (6 Bft) W-SW22.5 245 0 min 0 lux 0,00 min 0,0 C -15,6 C
01.03.2010 04:31 0,3 C 98 % 1002 hPa 0,0 l/m 39,2 km/h (6 Bft) W22.5 265 0 min 0 lux 0,00 min 0,0 C -15,3 C
01.03.2010 04:46 0,3 C 98 % 1002 hPa 0,0 l/m 38,6 km/h (5 Bft) W-SW45 255 0 min 0 lux 0,00 min 0,0 C -15,2 C
01.03.2010 05:01 0,4 C 97 % 1002 hPa 0,0 l/m 31,9 km/h (5 Bft) W-SW22.5 255 0 min 0 lux 0,00 min -0,0 C -13,4 C
01.03.2010 05:16 0,4 C 97 % 1002 hPa 0,0 l/m 42,1 km/h (6 Bft) W45 260 0 min 0 lux 0,00 min -0,0 C -15,8 C
01.03.2010 05:31 0,4 C 96 % 1002 hPa 0,0 l/m 33,5 km/h (5 Bft) W22.5 260 0 min 0 lux 0,00 min -0,2 C -13,8 C
01.03.2010 05:46 0,4 C 96 % 1003 hPa 0,0 l/m 37,4 km/h (5 Bft) W45 260 0 min 0 lux 0,00 min -0,2 C -14,8 C
01.03.2010 06:01 0,4 C 96 % 1003 hPa 0,0 l/m 30,7 km/h (5 Bft) W-SW67.5 245 0 min 0 lux 0,00 min -0,2 C -13,1 C
01.03.2010 06:16 0,3 C 96 % 1003 hPa 0,0 l/m 39,4 km/h (6 Bft) W22.5 260 0 min 0 lux 0,00 min -0,3 C -15,4 C
01.03.2010 06:31 0,3 C 96 % 1003 hPa 0,0 l/m 40,5 km/h (6 Bft) W-SW45 255 0 min 0 lux 0,00 min -0,3 C -15,6 C
01.03.2010 06:46 0,3 C 96 % 1004 hPa 0,0 l/m 34,5 km/h (5 Bft) W-SW45 255 0 min 0 lux 0,00 min -0,3 C -14,2 C
01.03.2010 07:01 0,3 C 96 % 1004 hPa 0,0 l/m 25,4 km/h (4 Bft) W22.5 260 0 min 0 lux 0,00 min -0,3 C -11,5 C
01.03.2010 07:16 0,3 C 95 % 1004 hPa 0,0 l/m 32,2 km/h (5 Bft) W22.5 260 0 min 139 lux 0,00 min -0,4 C -13,6 C
01.03.2010 07:31 0,2 C 95 % 1004 hPa 0,0 l/m 33,7 km/h (5 Bft) W-SW22.5 255 0 min 970 lux 0,00 min -0,5 C -14,2 C
01.03.2010 07:46 0,2 C 95 % 1004 hPa 0,0 l/m 23,5 km/h (4 Bft) W-SW22.5 250 0 min 1,19 klux 0,00 min -0,5 C -10,9 C
01.03.2010 08:01 0,2 C 96 % 1005 hPa 0,0 l/m 31,6 km/h (5 Bft) W-SW22.5 255 0 min 1,59 klux 0,00 min -0,4 C -13,6 C
01.03.2010 08:15 0,3 C 95 % 1005 hPa 0,0 l/m 34,4 km/h (5 Bft) W45 260 0 min 793 lux 0,00 min -0,4 C -14,2 C
01.03.2010 08:30 0,3 C 95 % 1005 hPa 0,0 l/m 28,2 km/h (4 Bft) W22.5 260 0 min 2,77 klux 0,00 min -0,4 C -12,4 C
01.03.2010 08:45 0,2 C 96 % 1005 hPa 0,0 l/m 36,9 km/h (5 Bft) W-SW22.5 255 0 min 3,40 klux 0,00 min -0,4 C -15,0 C
01.03.2010 09:01 0,2 C 96 % 1006 hPa 0,3 l/m 22,6 km/h (4 Bft) W-SW45 255 0 min 6,22 klux 16,00 min -0,4 C -10,5 C
01.03.2010 09:16 0,3 C 96 % 1006 hPa 0,0 l/m 40,9 km/h (6 Bft) W22.5 260 0 min 9,3 klux 0,00 min -0,3 C -15,7 C
01.03.2010 09:31 0,4 C 96 % 1006 hPa 0,0 l/m 26,5 km/h (4 Bft) W22.5 260 0 min 9,9 klux 0,00 min -0,2 C -11,7 C
01.03.2010 09:45 0,7 C 96 % 1006 hPa 0,0 l/m 20,8 km/h (4 Bft) W-SW45 255 0 min 18,3 klux 0,00 min 0,1 C -9,1 C
01.03.2010 10:00 1,2 C 96 % 1006 hPa 0,0 l/m 21,6 km/h (4 Bft) W-SW45 245 0 min 24,6 klux 0,00 min 0,6 C -8,8 C
01.03.2010 10:15 1,9 C 95 % 1007 hPa 0,0 l/m 30,0 km/h (5 Bft) W-SW22.5 255 15 min 40,8 klux 0,00 min 1,2 C -10,7 C
01.03.2010 10:30 2,3 C 94 % 1007 hPa 0,0 l/m 28,0 km/h (4 Bft) W-SW22.5 250 15 min 36,7 klux 0,00 min 1,4 C -9,6 C
01.03.2010 10:46 2,7 C 93 % 1007 hPa 0,0 l/m 32,9 km/h (5 Bft) W-SW22.5 255 16 min 53,2 klux 0,00 min 1,7 C -10,4 C
01.03.2010 11:01 2,7 C 91 % 1007 hPa 0,0 l/m 34,3 km/h (5 Bft) W-SW45 255 0 min 22,1 klux 0,00 min 1,4 C -10,7 C
01.03.2010 11:16 2,1 C 91 % 1007 hPa 0,0 l/m 28,0 km/h (4 Bft) W-SW45 255 0 min 18,4 klux 0,00 min 0,8 C -9,9 C
01.03.2010 11:30 3,0 C 92 % 1008 hPa 0,0 l/m 34,0 km/h (5 Bft) W-SW22.5 255 14 min 65,1 klux 0,00 min 1,8 C -10,2 C
01.03.2010 11:45 2,7 C 88 % 1008 hPa 0,0 l/m 27,6 km/h (4 Bft) W-SW22.5 255 0 min 13,6 klux 0,00 min 0,9 C -8,9 C
01.03.2010 12:00 2,3 C 87 % 1008 hPa 0,0 l/m 30,8 km/h (5 Bft) W22.5 270 0 min 11,8 klux 0,00 min 0,4 C -10,4 C
01.03.2010 12:15 2,2 C 87 % 1008 hPa 0,0 l/m 22,3 km/h (4 Bft) W22.5 260 0 min 12,8 klux 0,00 min 0,3 C -7,7 C
01.03.2010 12:31 2,1 C 87 % 1008 hPa 0,0 l/m 27,2 km/h (4 Bft) W22.5 270 0 min 12,0 klux 0,00 min 0,2 C -9,6 C
01.03.2010 12:46 2,2 C 86 % 1008 hPa 0,0 l/m 28,3 km/h (4 Bft) W22.5 260 0 min 18,3 klux 0,00 min 0,1 C -9,8 C
01.03.2010 13:01 2,6 C 85 % 1008 hPa 0,0 l/m 23,5 km/h (4 Bft) W-SW22.5 255 15 min 27,3 klux 0,00 min 0,3 C -7,7 C
01.03.2010 13:16 3,1 C 86 % 1008 hPa 0,0 l/m 27,3 km/h (4 Bft) W45 265 0 min 22,2 klux 0,00 min 1,0 C -8,3 C
01.03.2010 13:30 3,2 C 86 % 1008 hPa 0,0 l/m 28,3 km/h (4 Bft) W45 265 14 min 70,3 klux 0,00 min 1,1 C -8,4 C
01.03.2010 13:45 3,2 C 83 % 1008 hPa 0,0 l/m 26,8 km/h (4 Bft) W-SW45 250 0 min 20,5 klux 0,00 min 0,6 C -8,0 C
01.03.2010 14:00 3,0 C 84 % 1008 hPa 0,0 l/m 27,8 km/h (4 Bft) W-SW22.5 255 0 min 13,4 klux 0,00 min 0,6 C -8,6 C
01.03.2010 14:16 3,0 C 84 % 1008 hPa 0,0 l/m 25,2 km/h (4 Bft) W45 260 0 min 16,5 klux 0,00 min 0,6 C -7,7 C
01.03.2010 14:31 3,1 C 84 % 1008 hPa 0,0 l/m 21,5 km/h (4 Bft) W-SW22.5 250 0 min 16,5 klux 0,00 min 0,7 C -6,2 C
01.03.2010 14:46 3,1 C 84 % 1009 hPa 0,0 l/m 21,7 km/h (4 Bft) W22.5 260 0 min 18,3 klux 0,00 min 0,7 C -6,3 C
01.03.2010 15:00 3,4 C 84 % 1009 hPa 0,0 l/m 22,2 km/h (4 Bft) W-SW22.5 255 0 min 17,8 klux 0,00 min 1,0 C -6,1 C
01.03.2010 15:15 3,2 C 83 % 1009 hPa 0,0 l/m 18,2 km/h (3 Bft) W22.5 260 0 min 14,0 klux 0,00 min 0,6 C -4,7 C
01.03.2010 15:30 3,2 C 84 % 1009 hPa 0,0 l/m 17,2 km/h (3 Bft) W-SW22.5 255 0 min 16,1 klux 0,00 min 0,8 C -4,2 C
01.03.2010 15:45 3,2 C 84 % 1009 hPa 0,0 l/m 19,5 km/h (3 Bft) W-SW45 250 0 min 14,6 klux 0,00 min 0,8 C -5,3 C
01.03.2010 16:01 3,3 C 84 % 1009 hPa 0,0 l/m 14,1 km/h (3 Bft) W22.5 260 0 min 15,6 klux 0,00 min 0,9 C -2,5 C
01.03.2010 16:16 3,4 C 83 % 1009 hPa 0,0 l/m 17,6 km/h (3 Bft) W22.5 260 0 min 14,7 klux 0,00 min 0,8 C -4,2 C
01.03.2010 16:31 3,3 C 83 % 1009 hPa 0,0 l/m 15,8 km/h (3 Bft) W-SW22.5 250 0 min 15,3 klux 0,00 min 0,7 C -3,4 C
01.03.2010 16:45 3,0 C 83 % 1010 hPa 0,0 l/m 14,3 km/h (3 Bft) W22.5 265 0 min 6,79 klux 0,00 min 0,4 C -3,0 C
01.03.2010 17:00 2,8 C 84 % 1010 hPa 0,0 l/m 12,1 km/h (2 Bft) W-SW 250 0 min 5,91 klux 0,00 min 0,4 C -1,8 C
01.03.2010 17:15 2,6 C 84 % 1010 hPa 0,0 l/m 10,0 km/h (2 Bft) W-SW 255 0 min 4,55 klux 0,00 min 0,2 C -0,6 C
01.03.2010 17:31 2,4 C 84 % 1010 hPa 0,0 l/m 7,4 km/h (2 Bft) W 265 0 min 3,98 klux 0,00 min -0,0 C 1,4 C
01.03.2010 17:46 2,1 C 85 % 1010 hPa 0,0 l/m 7,9 km/h (2 Bft) W 265 0 min 1,77 klux 0,00 min -0,2 C 0,7 C
01.03.2010 18:01 2,0 C 85 % 1010 hPa 0,0 l/m 7,2 km/h (2 Bft) W 265 0 min 1,32 klux 0,00 min -0,3 C 1,2 C
01.03.2010 18:15 1,8 C 86 % 1010 hPa 0,0 l/m 7,3 km/h (2 Bft) W 260 0 min 713 lux 0,00 min -0,3 C 0,9 C
01.03.2010 18:30 1,5 C 87 % 1011 hPa 0,0 l/m 7,0 km/h (2 Bft) W 260 0 min 148 lux 0,00 min -0,4 C 0,9 C
01.03.2010 18:45 1,3 C 87 % 1011 hPa 0,0 l/m 6,1 km/h (2 Bft) W 260 0 min 19 lux 0,00 min -0,6 C 1,3 C
01.03.2010 19:00 1,2 C 88 % 1011 hPa 0,0 l/m 0,3 km/h (0 Bft) W 260 0 min 7 lux 0,00 min -0,6 C 1,2 C
01.03.2010 19:16 0,8 C 88 % 1011 hPa 0,0 l/m 0,0 km/h (0 Bft) W 260 0 min 0 lux 0,00 min -1,0 C 0,8 C
01.03.2010 19:31 0,5 C 89 % 1011 hPa 0,0 l/m 4,8 km/h (1 Bft) W 260 0 min 0 lux 0,00 min -1,1 C 0,5 C
01.03.2010 19:46 0,3 C 89 % 1011 hPa 0,0 l/m 6,0 km/h (2 Bft) W 260 0 min 0 lux 0,00 min -1,3 C 0,3 C
01.03.2010 20:00 -0,4 C 89 % 1011 hPa 0,0 l/m 0,0 km/h (0 Bft) W-SW 255 0 min 0 lux 0,00 min -2,0 C -0,4 C
01.03.2010 20:15 -1,1 C 89 % 1011 hPa 0,0 l/m 0,3 km/h (0 Bft) W-SW 255 0 min 0 lux 0,00 min -2,7 C -1,1 C
01.03.2010 20:30 -1,5 C 90 % 1012 hPa 0,0 l/m 4,3 km/h (1 Bft) W-SW 255 0 min 0 lux 0,00 min -2,9 C -1,5 C
01.03.2010 20:45 -1,8 C 91 % 1012 hPa 0,0 l/m 3,1 km/h (1 Bft) W-SW 255 0 min 0 lux 0,00 min -3,1 C -1,8 C
01.03.2010 21:01 -2,0 C 92 % 1012 hPa 0,0 l/m 3,1 km/h (1 Bft) W 260 0 min 0 lux 0,00 min -3,1 C -2,0 C
01.03.2010 21:16 -2,3 C 92 % 1012 hPa 0,0 l/m 6,2 km/h (2 Bft) W-SW22.5 255 0 min 0 lux 0,00 min -3,4 C -2,3 C
01.03.2010 21:31 -2,5 C 92 % 1012 hPa 0,0 l/m 0,0 km/h (0 Bft) W 260 0 min 0 lux 0,00 min -3,6 C -2,5 C
01.03.2010 21:45 -2,7 C 92 % 1012 hPa 0,0 l/m 0,0 km/h (0 Bft) W-SW 255 0 min 0 lux 0,00 min -3,8 C -2,7 C
01.03.2010 22:00 -2,9 C 93 % 1012 hPa 0,0 l/m 0,0 km/h (0 Bft) W 260 0 min 0 lux 0,00 min -3,9 C -2,9 C
01.03.2010 22:15 -3,0 C 93 % 1012 hPa 0,0 l/m 0,0 km/h (0 Bft) W-SW 255 0 min 0 lux 0,00 min -4,0 C -3,0 C
01.03.2010 22:31 -3,1 C 93 % 1012 hPa 0,0 l/m 3,2 km/h (1 Bft) W-SW 255 0 min 0 lux 0,00 min -4,1 C -3,1 C
01.03.2010 22:46 -3,2 C 94 % 1012 hPa 0,0 l/m 0,3 km/h (0 Bft) W-SW 255 0 min 0 lux 0,00 min -4,0 C -3,2 C
01.03.2010 23:01 -3,4 C 94 % 1013 hPa 0,0 l/m 0,0 km/h (0 Bft) W-SW 255 0 min 0 lux 0,00 min -4,2 C -3,4 C
01.03.2010 23:16 -3,4 C 94 % 1013 hPa 0,0 l/m 0,0 km/h (0 Bft) W-SW 255 0 min 0 lux 0,00 min -4,2 C -3,4 C
01.03.2010 23:30 -3,7 C 94 % 1013 hPa 0,0 l/m 0,0 km/h (0 Bft) W-SW 255 0 min 0 lux 0,00 min -4,5 C -3,7 C
01.03.2010 23:45 -3,8 C 94 % 1013 hPa 0,0 l/m 2,5 km/h (1 Bft) W 260 0 min 0 lux 0,00 min -4,6 C -3,8 C
_ Min-Zeit 23:45 13:45 00:00 - 19:16 - - - - - 23:45 05:16
Minimum _ -3,8 C 83 % 998 hPa - 0,0 km/h (0 Bft) - - - - - -4,6 C -15,8 C
_ Max-Zeit 15:00 04:16 23:01 00:00 02:31 - - 10:46 13:30 09:01 11:30 17:31
Maximum _ 3,4 C 98 % 1013 hPa 0,3 l/m 43,3 km/h
W-SW (6 Bft)
- - 16 min 70,3 klux 16,00 min 1,8 C 1,4 C
Durchschnitt _ 0,8 C 92 % 1007 hPa #0,9 l/m 22,5 km/h (4 Bft) W-SW - #1:29 h 7,52 klux #46 min. -0,4 C -8,3 C